<?xml version="1.0" encoding="UTF-8" standalone="no" ?>
<gpx xmlns="http://www.topografix.com/GPX/1/1" xmlns:xsi="http://www.w3.org/2001/XMLSchema-instance" xsi:schemaLocation="http://www.topografix.com/GPX/1/1 http://www.topografix.com/GPX/1/1/gpx.xsd" version="1.1" creator="VisuGPX - https://www.visugpx.com">
  <metadata>
    <name>20220210</name>
  </metadata>
  <trk>
    <name><![CDATA[20220210]]></name>
    <extensions>
      <line xmlns="http://www.topografix.com/GPX/gpx_style/0/2">
        <color>0000FF</color>
        <width>4</width>
      </line>
    </extensions>
    <trkseg>
      <trkpt lat="49.36039" lon="1.62533">
        <ele>118</ele>
        <time>2021-12-11T15:00:19+01:00</time>
      </trkpt>
      <trkpt lat="49.36074" lon="1.62568">
        <ele>117</ele>
        <time>2021-12-11T15:01:07+01:00</time>
      </trkpt>
      <trkpt lat="49.36101" lon="1.62631">
        <ele>116</ele>
        <time>2021-12-11T15:02:03+01:00</time>
      </trkpt>
      <trkpt lat="49.36105" lon="1.62748">
        <ele>115</ele>
        <time>2021-12-11T15:03:31+01:00</time>
      </trkpt>
      <trkpt lat="49.36106" lon="1.62903">
        <ele>114</ele>
        <time>2021-12-11T15:05:26+01:00</time>
      </trkpt>
      <trkpt lat="49.3611" lon="1.63021">
        <ele>113</ele>
        <time>2021-12-11T15:06:54+01:00</time>
      </trkpt>
      <trkpt lat="49.36217" lon="1.63083">
        <ele>108</ele>
        <time>2021-12-11T15:09:05+01:00</time>
      </trkpt>
      <trkpt lat="49.36248" lon="1.63117">
        <ele>106</ele>
        <time>2021-12-11T15:00:39+01:00</time>
      </trkpt>
      <trkpt lat="49.36313" lon="1.6321">
        <ele>102</ele>
        <time>2021-12-11T15:02:22+01:00</time>
      </trkpt>
      <trkpt lat="49.36375" lon="1.63271">
        <ele>103</ele>
        <time>2021-12-11T15:03:56+01:00</time>
      </trkpt>
      <trkpt lat="49.36432" lon="1.63239">
        <ele>105</ele>
        <time>2021-12-11T15:00:44+01:00</time>
      </trkpt>
      <trkpt lat="49.36417" lon="1.63373">
        <ele>106</ele>
        <time>2021-12-11T15:00:49+01:00</time>
      </trkpt>
      <trkpt lat="49.36443" lon="1.63451">
        <ele>108</ele>
        <time>2021-12-11T15:00:54+01:00</time>
      </trkpt>
      <trkpt lat="49.36513" lon="1.63559">
        <ele>111</ele>
        <time>2021-12-11T15:00:59+01:00</time>
      </trkpt>
      <trkpt lat="49.36689" lon="1.63738">
        <ele>117</ele>
        <time>2021-12-11T15:01:04+01:00</time>
      </trkpt>
      <trkpt lat="49.3676" lon="1.63896">
        <ele>120</ele>
        <time>2021-12-11T15:01:09+01:00</time>
      </trkpt>
      <trkpt lat="49.36789" lon="1.63938">
        <ele>120</ele>
        <time>2021-12-11T15:01:14+01:00</time>
      </trkpt>
      <trkpt lat="49.37257" lon="1.64359">
        <ele>129</ele>
        <time>2021-12-11T15:01:19+01:00</time>
      </trkpt>
      <trkpt lat="49.37399" lon="1.64688">
        <ele>132</ele>
        <time>2021-12-11T15:01:24+01:00</time>
      </trkpt>
      <trkpt lat="49.37407" lon="1.64737">
        <ele>133</ele>
        <time>2021-12-11T15:01:29+01:00</time>
      </trkpt>
      <trkpt lat="49.37428" lon="1.64806">
        <ele>133</ele>
        <time>2021-12-11T15:01:34+01:00</time>
      </trkpt>
      <trkpt lat="49.37655" lon="1.6511">
        <ele>130</ele>
        <time>2021-12-11T15:01:39+01:00</time>
      </trkpt>
      <trkpt lat="49.37612" lon="1.65304">
        <ele>128</ele>
        <time>2021-12-11T15:04:12+01:00</time>
      </trkpt>
      <trkpt lat="49.37583" lon="1.65483">
        <ele>127</ele>
        <time>2021-12-11T15:01:44+01:00</time>
      </trkpt>
      <trkpt lat="49.37551" lon="1.65527">
        <ele>127</ele>
        <time>2021-12-11T15:01:49+01:00</time>
      </trkpt>
      <trkpt lat="49.37378" lon="1.65708">
        <ele>127</ele>
        <time>2021-12-11T15:01:54+01:00</time>
      </trkpt>
      <trkpt lat="49.37399" lon="1.6579">
        <ele>128</ele>
        <time>2021-12-11T15:01:59+01:00</time>
      </trkpt>
      <trkpt lat="49.37434" lon="1.65961">
        <ele>126</ele>
        <time>2021-12-11T15:02:04+01:00</time>
      </trkpt>
      <trkpt lat="49.37388" lon="1.66564">
        <ele>124</ele>
        <time>2021-12-11T15:02:09+01:00</time>
      </trkpt>
      <trkpt lat="49.3723" lon="1.6654">
        <ele>118</ele>
        <time>2021-12-11T15:02:14+01:00</time>
      </trkpt>
      <trkpt lat="49.37178" lon="1.66491">
        <ele>120</ele>
        <time>2021-12-11T15:02:19+01:00</time>
      </trkpt>
      <trkpt lat="49.37119" lon="1.66814">
        <ele>120</ele>
        <time>2021-12-11T15:02:24+01:00</time>
      </trkpt>
      <trkpt lat="49.37119" lon="1.66987">
        <ele>119</ele>
        <time>2021-12-11T15:02:29+01:00</time>
      </trkpt>
      <trkpt lat="49.37109" lon="1.67139">
        <ele>119</ele>
        <time>2021-12-11T15:02:34+01:00</time>
      </trkpt>
      <trkpt lat="49.37079" lon="1.67248">
        <ele>118</ele>
        <time>2021-12-11T15:02:39+01:00</time>
      </trkpt>
      <trkpt lat="49.37081" lon="1.6729">
        <ele>117</ele>
        <time>2021-12-11T15:02:44+01:00</time>
      </trkpt>
      <trkpt lat="49.36986" lon="1.67799">
        <ele>116</ele>
        <time>2021-12-11T15:02:49+01:00</time>
      </trkpt>
      <trkpt lat="49.36969" lon="1.67879">
        <ele>116</ele>
        <time>2021-12-11T15:02:54+01:00</time>
      </trkpt>
      <trkpt lat="49.3695" lon="1.67984">
        <ele>116</ele>
        <time>2021-12-11T15:02:59+01:00</time>
      </trkpt>
      <trkpt lat="49.36938" lon="1.68269">
        <ele>111</ele>
        <time>2021-12-11T15:03:04+01:00</time>
      </trkpt>
      <trkpt lat="49.36932" lon="1.68333">
        <ele>111</ele>
        <time>2021-12-11T15:03:09+01:00</time>
      </trkpt>
      <trkpt lat="49.36982" lon="1.68342">
        <ele>103</ele>
        <time>2021-12-11T15:03:14+01:00</time>
      </trkpt>
      <trkpt lat="49.37075" lon="1.68491">
        <ele>93</ele>
        <time>2021-12-11T15:03:19+01:00</time>
      </trkpt>
      <trkpt lat="49.36971" lon="1.68709">
        <ele>94</ele>
        <time>2021-12-11T15:03:24+01:00</time>
      </trkpt>
      <trkpt lat="49.36925" lon="1.68754">
        <ele>99</ele>
        <time>2021-12-11T15:03:29+01:00</time>
      </trkpt>
      <trkpt lat="49.36855" lon="1.68683">
        <ele>105</ele>
        <time>2021-12-11T15:03:34+01:00</time>
      </trkpt>
      <trkpt lat="49.36805" lon="1.68736">
        <ele>111</ele>
        <time>2021-12-11T15:03:39+01:00</time>
      </trkpt>
      <trkpt lat="49.36792" lon="1.68859">
        <ele>117</ele>
        <time>2021-12-11T15:03:44+01:00</time>
      </trkpt>
      <trkpt lat="49.36757" lon="1.69095">
        <ele>124</ele>
        <time>2021-12-11T15:03:49+01:00</time>
      </trkpt>
      <trkpt lat="49.36724" lon="1.69219">
        <ele>128</ele>
        <time>2021-12-11T15:03:54+01:00</time>
      </trkpt>
      <trkpt lat="49.36692" lon="1.69299">
        <ele>131</ele>
        <time>2021-12-11T15:03:59+01:00</time>
      </trkpt>
      <trkpt lat="49.36683" lon="1.69384">
        <ele>133</ele>
        <time>2021-12-11T15:04:04+01:00</time>
      </trkpt>
      <trkpt lat="49.36609" lon="1.6954">
        <ele>135</ele>
        <time>2021-12-11T15:04:09+01:00</time>
      </trkpt>
      <trkpt lat="49.36415" lon="1.69804">
        <ele>131</ele>
        <time>2021-12-11T15:04:14+01:00</time>
      </trkpt>
      <trkpt lat="49.36279" lon="1.69994">
        <ele>129</ele>
        <time>2021-12-11T15:04:19+01:00</time>
      </trkpt>
      <trkpt lat="49.36173" lon="1.70299">
        <ele>124</ele>
        <time>2021-12-11T15:04:24+01:00</time>
      </trkpt>
      <trkpt lat="49.36101" lon="1.70178">
        <ele>129</ele>
        <time>2021-12-11T15:04:29+01:00</time>
      </trkpt>
      <trkpt lat="49.36063" lon="1.70034">
        <ele>130</ele>
        <time>2021-12-11T15:04:34+01:00</time>
      </trkpt>
      <trkpt lat="49.35961" lon="1.69878">
        <ele>129</ele>
        <time>2021-12-11T15:04:39+01:00</time>
      </trkpt>
      <trkpt lat="49.35882" lon="1.69724">
        <ele>126</ele>
        <time>2021-12-11T15:04:44+01:00</time>
      </trkpt>
      <trkpt lat="49.35822" lon="1.69575">
        <ele>124</ele>
        <time>2021-12-11T15:04:49+01:00</time>
      </trkpt>
      <trkpt lat="49.35774" lon="1.69464">
        <ele>121</ele>
        <time>2021-12-11T15:04:54+01:00</time>
      </trkpt>
      <trkpt lat="49.35699" lon="1.6919">
        <ele>115</ele>
        <time>2021-12-11T15:04:59+01:00</time>
      </trkpt>
      <trkpt lat="49.35689" lon="1.69115">
        <ele>117</ele>
        <time>2021-12-11T15:05:04+01:00</time>
      </trkpt>
      <trkpt lat="49.35714" lon="1.68945">
        <ele>117</ele>
        <time>2021-12-11T15:05:09+01:00</time>
      </trkpt>
      <trkpt lat="49.35677" lon="1.68879">
        <ele>116</ele>
        <time>2021-12-11T15:05:14+01:00</time>
      </trkpt>
      <trkpt lat="49.35636" lon="1.68738">
        <ele>106</ele>
        <time>2021-12-11T15:05:19+01:00</time>
      </trkpt>
      <trkpt lat="49.35597" lon="1.6867">
        <ele>103</ele>
        <time>2021-12-11T15:05:24+01:00</time>
      </trkpt>
      <trkpt lat="49.35509" lon="1.68654">
        <ele>100</ele>
        <time>2021-12-11T15:05:29+01:00</time>
      </trkpt>
      <trkpt lat="49.3547" lon="1.68612">
        <ele>98</ele>
        <time>2021-12-11T15:05:34+01:00</time>
      </trkpt>
      <trkpt lat="49.3542" lon="1.68503">
        <ele>93</ele>
        <time>2021-12-11T15:05:39+01:00</time>
      </trkpt>
      <trkpt lat="49.3539" lon="1.68485">
        <ele>91</ele>
        <time>2021-12-11T15:05:44+01:00</time>
      </trkpt>
      <trkpt lat="49.35286" lon="1.6848">
        <ele>86</ele>
        <time>2021-12-11T15:05:49+01:00</time>
      </trkpt>
      <trkpt lat="49.35292" lon="1.68358">
        <ele>88</ele>
        <time>2021-12-11T15:05:54+01:00</time>
      </trkpt>
      <trkpt lat="49.35317" lon="1.68202">
        <ele>90</ele>
        <time>2021-12-11T15:05:59+01:00</time>
      </trkpt>
      <trkpt lat="49.35304" lon="1.68111">
        <ele>89</ele>
        <time>2021-12-11T15:06:04+01:00</time>
      </trkpt>
      <trkpt lat="49.35299" lon="1.68031">
        <ele>88</ele>
        <time>2021-12-11T15:06:09+01:00</time>
      </trkpt>
      <trkpt lat="49.35308" lon="1.67922">
        <ele>88</ele>
        <time>2021-12-11T15:06:14+01:00</time>
      </trkpt>
      <trkpt lat="49.35336" lon="1.67937">
        <ele>90</ele>
        <time>2021-12-11T15:06:19+01:00</time>
      </trkpt>
      <trkpt lat="49.35365" lon="1.67911">
        <ele>91</ele>
        <time>2021-12-11T15:06:24+01:00</time>
      </trkpt>
      <trkpt lat="49.35418" lon="1.67788">
        <ele>90</ele>
        <time>2021-12-11T15:06:29+01:00</time>
      </trkpt>
      <trkpt lat="49.35468" lon="1.67686">
        <ele>93</ele>
        <time>2021-12-11T15:06:34+01:00</time>
      </trkpt>
      <trkpt lat="49.35487" lon="1.67653">
        <ele>95</ele>
        <time>2021-12-11T15:06:39+01:00</time>
      </trkpt>
      <trkpt lat="49.35519" lon="1.67539">
        <ele>95</ele>
        <time>2021-12-11T15:06:44+01:00</time>
      </trkpt>
      <trkpt lat="49.35622" lon="1.67599">
        <ele>103</ele>
        <time>2021-12-11T15:06:49+01:00</time>
      </trkpt>
      <trkpt lat="49.35663" lon="1.67608">
        <ele>105</ele>
        <time>2021-12-11T15:06:54+01:00</time>
      </trkpt>
      <trkpt lat="49.35786" lon="1.67557">
        <ele>107</ele>
        <time>2021-12-11T15:06:59+01:00</time>
      </trkpt>
      <trkpt lat="49.35816" lon="1.67428">
        <ele>106</ele>
        <time>2021-12-11T15:07:04+01:00</time>
      </trkpt>
      <trkpt lat="49.35826" lon="1.67294">
        <ele>106</ele>
        <time>2021-12-11T15:07:09+01:00</time>
      </trkpt>
      <trkpt lat="49.35856" lon="1.6715">
        <ele>105</ele>
        <time>2021-12-11T15:07:14+01:00</time>
      </trkpt>
      <trkpt lat="49.35864" lon="1.6709">
        <ele>104</ele>
        <time>2021-12-11T15:07:19+01:00</time>
      </trkpt>
      <trkpt lat="49.3586" lon="1.66956">
        <ele>105</ele>
        <time>2021-12-11T15:07:24+01:00</time>
      </trkpt>
      <trkpt lat="49.35839" lon="1.66774">
        <ele>105</ele>
        <time>2021-12-11T15:07:29+01:00</time>
      </trkpt>
      <trkpt lat="49.35779" lon="1.6662">
        <ele>104</ele>
        <time>2021-12-11T15:07:34+01:00</time>
      </trkpt>
      <trkpt lat="49.35705" lon="1.66462">
        <ele>100</ele>
        <time>2021-12-11T15:07:39+01:00</time>
      </trkpt>
      <trkpt lat="49.35677" lon="1.6626">
        <ele>99</ele>
        <time>2021-12-11T15:07:44+01:00</time>
      </trkpt>
      <trkpt lat="49.35699" lon="1.66082">
        <ele>101</ele>
        <time>2021-12-11T15:07:49+01:00</time>
      </trkpt>
      <trkpt lat="49.35746" lon="1.65875">
        <ele>103</ele>
        <time>2021-12-11T15:07:54+01:00</time>
      </trkpt>
      <trkpt lat="49.35789" lon="1.65741">
        <ele>103</ele>
        <time>2021-12-11T15:07:59+01:00</time>
      </trkpt>
      <trkpt lat="49.35835" lon="1.65463">
        <ele>101</ele>
        <time>2021-12-11T15:08:04+01:00</time>
      </trkpt>
      <trkpt lat="49.35867" lon="1.65356">
        <ele>99</ele>
        <time>2021-12-11T15:08:09+01:00</time>
      </trkpt>
      <trkpt lat="49.35893" lon="1.65233">
        <ele>96</ele>
        <time>2021-12-11T15:08:14+01:00</time>
      </trkpt>
      <trkpt lat="49.35902" lon="1.65167">
        <ele>95</ele>
        <time>2021-12-11T15:08:19+01:00</time>
      </trkpt>
      <trkpt lat="49.36018" lon="1.64615">
        <ele>98</ele>
        <time>2021-12-11T15:08:24+01:00</time>
      </trkpt>
      <trkpt lat="49.36169" lon="1.64045">
        <ele>98</ele>
        <time>2021-12-11T15:08:29+01:00</time>
      </trkpt>
      <trkpt lat="49.36407" lon="1.64154">
        <ele>112</ele>
        <time>2021-12-11T15:08:34+01:00</time>
      </trkpt>
      <trkpt lat="49.36373" lon="1.63867">
        <ele>110</ele>
        <time>2021-12-11T15:08:39+01:00</time>
      </trkpt>
      <trkpt lat="49.36396" lon="1.63547">
        <ele>105</ele>
        <time>2021-12-11T15:08:44+01:00</time>
      </trkpt>
      <trkpt lat="49.36429" lon="1.63244">
        <ele>105</ele>
        <time>2021-12-11T15:12:33+01:00</time>
      </trkpt>
      <trkpt lat="49.36472" lon="1.63201">
        <ele>107</ele>
        <time>2021-12-11T15:08:49+01:00</time>
      </trkpt>
      <trkpt lat="49.36484" lon="1.63124">
        <ele>105</ele>
        <time>2021-12-11T15:08:54+01:00</time>
      </trkpt>
      <trkpt lat="49.36522" lon="1.6307">
        <ele>104</ele>
        <time>2021-12-11T15:08:59+01:00</time>
      </trkpt>
      <trkpt lat="49.36561" lon="1.63065">
        <ele>105</ele>
        <time>2021-12-11T15:09:04+01:00</time>
      </trkpt>
      <trkpt lat="49.36549" lon="1.62923">
        <ele>104</ele>
        <time>2021-12-11T15:09:09+01:00</time>
      </trkpt>
      <trkpt lat="49.36571" lon="1.62739">
        <ele>106</ele>
        <time>2021-12-11T15:09:14+01:00</time>
      </trkpt>
      <trkpt lat="49.36576" lon="1.62562">
        <ele>106</ele>
        <time>2021-12-11T15:11:26+01:00</time>
      </trkpt>
      <trkpt lat="49.36534" lon="1.62526">
        <ele>104</ele>
        <time>2021-12-11T15:12:21+01:00</time>
      </trkpt>
      <trkpt lat="49.36501" lon="1.62473">
        <ele>102</ele>
        <time>2021-12-11T15:13:15+01:00</time>
      </trkpt>
      <trkpt lat="49.36373" lon="1.62488">
        <ele>108</ele>
        <time>2021-12-11T15:16:44+01:00</time>
      </trkpt>
      <trkpt lat="49.36252" lon="1.62423">
        <ele>114</ele>
        <time>2021-12-11T15:09:19+01:00</time>
      </trkpt>
      <trkpt lat="49.36191" lon="1.62356">
        <ele>115</ele>
        <time>2021-12-11T15:10:56+01:00</time>
      </trkpt>
      <trkpt lat="49.36111" lon="1.62499">
        <ele>116</ele>
        <time>2021-12-11T15:13:27+01:00</time>
      </trkpt>
      <trkpt lat="49.36074" lon="1.62565">
        <ele>117</ele>
        <time>2021-12-11T15:14:43+01:00</time>
      </trkpt>
      <trkpt lat="49.36038" lon="1.62532">
        <ele>118</ele>
        <time>2021-12-11T15:09:24+01:00</time>
      </trkpt>
    </trkseg>
  </trk>
</gpx>